sensor_id;sensor_type;location;lat;lon;timestamp;pressure;altitude;pressure_sealevel;temperature;humidity
35676;BME280;21790;42.668;23.298;2023-11-19T00:01:11;94659.13;;;9.85;43.70
35676;BME280;21790;42.668;23.298;2023-11-19T00:03:37;94660.78;;;9.83;43.84
35676;BME280;21790;42.668;23.298;2023-11-19T00:06:05;94656.81;;;9.93;43.39
35676;BME280;21790;42.668;23.298;2023-11-19T00:08:32;94660.94;;;9.79;43.77
35676;BME280;21790;42.668;23.298;2023-11-19T00:10:58;94645.16;;;9.80;43.60
35676;BME280;21790;42.668;23.298;2023-11-19T00:13:23;94648.41;;;9.96;43.07
35676;BME280;21790;42.668;23.298;2023-11-19T00:15:51;94653.47;;;9.98;43.21
35676;BME280;21790;42.668;23.298;2023-11-19T00:18:16;94660.81;;;9.92;43.04
35676;BME280;21790;42.668;23.298;2023-11-19T00:20:42;94658.69;;;10.05;43.12
35676;BME280;21790;42.668;23.298;2023-11-19T00:23:10;94654.66;;;9.88;43.17
35676;BME280;21790;42.668;23.298;2023-11-19T00:25:35;94654.81;;;9.93;43.31
35676;BME280;21790;42.668;23.298;2023-11-19T00:28:01;94650.66;;;9.71;43.59
35676;BME280;21790;42.668;23.298;2023-11-19T00:30:27;94667.84;;;9.75;43.33
35676;BME280;21790;42.668;23.298;2023-11-19T00:32:53;94662.94;;;9.79;43.66
35676;BME280;21790;42.668;23.298;2023-11-19T00:35:18;94655.59;;;9.76;43.74
35676;BME280;21790;42.668;23.298;2023-11-19T00:37:44;94667.69;;;9.78;43.72
35676;BME280;21790;42.668;23.298;2023-11-19T00:40:11;94665.53;;;9.82;43.38
35676;BME280;21790;42.668;23.298;2023-11-19T00:42:37;94672.75;;;9.89;43.30
35676;BME280;21790;42.668;23.298;2023-11-19T00:45:03;94666.03;;;9.90;43.05
35676;BME280;21790;42.668;23.298;2023-11-19T00:47:28;94654.50;;;9.82;43.49
35676;BME280;21790;42.668;23.298;2023-11-19T00:49:56;94660.94;;;9.79;43.16
35676;BME280;21790;42.668;23.298;2023-11-19T00:52:22;94657.69;;;9.72;43.61
35676;BME280;21790;42.668;23.298;2023-11-19T00:54:48;94649.88;;;9.61;43.96
35676;BME280;21790;42.668;23.298;2023-11-19T00:57:15;94659.50;;;9.56;43.83
35676;BME280;21790;42.668;23.298;2023-11-19T00:59:43;94654.50;;;9.73;43.50
35676;BME280;21790;42.668;23.298;2023-11-19T01:02:10;94662.16;;;9.78;43.30
35676;BME280;21790;42.668;23.298;2023-11-19T01:04:36;94660.13;;;9.60;43.72
35676;BME280;21790;42.668;23.298;2023-11-19T01:07:02;94651.50;;;9.40;44.03
35676;BME280;21790;42.668;23.298;2023-11-19T01:09:33;94663.47;;;9.55;44.00
35676;BME280;21790;42.668;23.298;2023-11-19T01:12:02;94671.66;;;9.68;43.52
35676;BME280;21790;42.668;23.298;2023-11-19T01:14:28;94671.50;;;9.72;43.71
35676;BME280;21790;42.668;23.298;2023-11-19T01:16:54;94668.56;;;9.57;43.75
35676;BME280;21790;42.668;23.298;2023-11-19T01:19:21;94663.47;;;9.46;43.62
35676;BME280;21790;42.668;23.298;2023-11-19T01:21:50;94670.13;;;9.67;43.96
35676;BME280;21790;42.668;23.298;2023-11-19T01:24:16;94672.09;;;9.57;44.02
35676;BME280;21790;42.668;23.298;2023-11-19T01:26:45;94674.81;;;9.48;44.49
35676;BME280;21790;42.668;23.298;2023-11-19T01:29:14;94673.00;;;9.54;43.88
35676;BME280;21790;42.668;23.298;2023-11-19T01:31:45;94676.06;;;9.65;43.83
35676;BME280;21790;42.668;23.298;2023-11-19T01:34:23;94685.63;;;9.83;43.66
35676;BME280;21790;42.668;23.298;2023-11-19T01:36:55;94697.00;;;9.85;43.22
35676;BME280;21790;42.668;23.298;2023-11-19T01:39:21;94694.44;;;9.50;43.71
35676;BME280;21790;42.668;23.298;2023-11-19T01:41:47;94690.03;;;9.71;43.38
35676;BME280;21790;42.668;23.298;2023-11-19T01:44:14;94687.00;;;9.87;43.17
35676;BME280;21790;42.668;23.298;2023-11-19T01:46:44;94687.19;;;9.93;43.12
35676;BME280;21790;42.668;23.298;2023-11-19T01:49:14;94680.44;;;9.85;42.95
35676;BME280;21790;42.668;23.298;2023-11-19T01:51:41;94693.44;;;9.75;43.08
35676;BME280;21790;42.668;23.298;2023-11-19T01:54:08;94690.47;;;9.60;42.96
35676;BME280;21790;42.668;23.298;2023-11-19T01:56:34;94694.13;;;9.48;42.98
35676;BME280;21790;42.668;23.298;2023-11-19T01:59:01;94697.84;;;9.23;43.48
35676;BME280;21790;42.668;23.298;2023-11-19T02:01:29;94691.72;;;9.59;43.28
35676;BME280;21790;42.668;23.298;2023-11-19T02:03:56;94694.94;;;9.67;42.84
35676;BME280;21790;42.668;23.298;2023-11-19T02:06:24;94683.19;;;9.76;43.00
35676;BME280;21790;42.668;23.298;2023-11-19T02:08:53;94676.88;;;9.75;42.49
35676;BME280;21790;42.668;23.298;2023-11-19T02:11:19;94675.19;;;9.69;42.56
35676;BME280;21790;42.668;23.298;2023-11-19T02:13:46;94665.22;;;9.71;42.82
35676;BME280;21790;42.668;23.298;2023-11-19T02:16:11;94670.53;;;9.56;42.65
35676;BME280;21790;42.668;23.298;2023-11-19T02:18:37;94669.94;;;9.52;42.79
35676;BME280;21790;42.668;23.298;2023-11-19T02:21:03;94669.94;;;9.52;42.52
35676;BME280;21790;42.668;23.298;2023-11-19T02:23:30;94670.81;;;9.49;42.65
35676;BME280;21790;42.668;23.298;2023-11-19T02:26:23;94667.16;;;9.52;42.56
35676;BME280;21790;42.668;23.298;2023-11-19T02:28:49;94677.75;;;9.54;42.97
35676;BME280;21790;42.668;23.298;2023-11-19T02:31:15;94679.16;;;9.58;42.34
35676;BME280;21790;42.668;23.298;2023-11-19T02:33:40;94681.84;;;9.49;42.39
35676;BME280;21790;42.668;23.298;2023-11-19T02:36:07;94669.16;;;9.52;42.64
35676;BME280;21790;42.668;23.298;2023-11-19T02:38:35;94656.72;;;9.47;42.67
35676;BME280;21790;42.668;23.298;2023-11-19T02:41:10;94662.00;;;9.63;42.58
35676;BME280;21790;42.668;23.298;2023-11-19T02:43:37;94674.53;;;9.55;42.54
35676;BME280;21790;42.668;23.298;2023-11-19T02:46:05;94647.41;;;9.63;42.27
35676;BME280;21790;42.668;23.298;2023-11-19T02:48:34;94675.19;;;9.78;42.23
35676;BME280;21790;42.668;23.298;2023-11-19T02:51:04;94672.53;;;9.56;42.19
35676;BME280;21790;42.668;23.298;2023-11-19T02:53:30;94676.00;;;9.38;42.54
35676;BME280;21790;42.668;23.298;2023-11-19T02:56:00;94665.81;;;9.57;42.33
35676;BME280;21790;42.668;23.298;2023-11-19T02:58:37;94665.00;;;9.47;42.26
35676;BME280;21790;42.668;23.298;2023-11-19T03:01:04;94670.97;;;9.46;42.74
35676;BME280;21790;42.668;23.298;2023-11-19T03:03:38;94672.34;;;9.41;42.51
35676;BME280;21790;42.668;23.298;2023-11-19T03:06:06;94675.69;;;9.36;42.62
35676;BME280;21790;42.668;23.298;2023-11-19T03:08:34;94668.19;;;9.06;43.27
35676;BME280;21790;42.668;23.298;2023-11-19T03:11:01;94686.03;;;9.23;43.03
35676;BME280;21790;42.668;23.298;2023-11-19T03:13:28;94686.69;;;9.27;42.93
35676;BME280;21790;42.668;23.298;2023-11-19T03:15:54;94692.09;;;9.40;42.60
35676;BME280;21790;42.668;23.298;2023-11-19T03:18:20;94685.91;;;8.96;43.29
35676;BME280;21790;42.668;23.298;2023-11-19T03:20:50;94688.66;;;8.96;43.56
35676;BME280;21790;42.668;23.298;2023-11-19T03:23:16;94680.00;;;9.06;43.77
35676;BME280;21790;42.668;23.298;2023-11-19T03:25:41;94684.09;;;9.02;43.58
35676;BME280;21790;42.668;23.298;2023-11-19T03:28:09;94682.06;;;9.24;43.19
35676;BME280;21790;42.668;23.298;2023-11-19T03:30:37;94684.78;;;9.15;43.40
35676;BME280;21790;42.668;23.298;2023-11-19T03:33:03;94688.22;;;9.28;43.00
35676;BME280;21790;42.668;23.298;2023-11-19T03:35:33;94682.53;;;9.22;42.96
35676;BME280;21790;42.668;23.298;2023-11-19T03:37:59;94681.31;;;9.23;42.95
35676;BME280;21790;42.668;23.298;2023-11-19T03:40:25;94681.50;;;9.38;42.56
35676;BME280;21790;42.668;23.298;2023-11-19T03:42:50;94695.88;;;9.33;42.74
35676;BME280;21790;42.668;23.298;2023-11-19T03:45:16;94695.53;;;9.22;43.14
35676;BME280;21790;42.668;23.298;2023-11-19T03:47:42;94695.28;;;9.38;42.50
35676;BME280;21790;42.668;23.298;2023-11-19T03:50:08;94694.03;;;9.21;43.28
35676;BME280;21790;42.668;23.298;2023-11-19T03:52:35;94692.91;;;9.18;42.89
35676;BME280;21790;42.668;23.298;2023-11-19T03:55:04;94700.38;;;9.09;43.15
35676;BME280;21790;42.668;23.298;2023-11-19T03:57:31;94703.81;;;8.91;43.34
35676;BME280;21790;42.668;23.298;2023-11-19T03:59:57;94699.16;;;9.10;43.03
35676;BME280;21790;42.668;23.298;2023-11-19T04:02:24;94708.41;;;9.16;42.84
35676;BME280;21790;42.668;23.298;2023-11-19T04:04:53;94710.19;;;9.10;43.08
35676;BME280;21790;42.668;23.298;2023-11-19T04:07:19;94709.28;;;9.13;43.07
35676;BME280;21790;42.668;23.298;2023-11-19T04:09:44;94722.03;;;9.19;43.33
35676;BME280;21790;42.668;23.298;2023-11-19T04:12:12;94725.78;;;9.35;43.15
35676;BME280;21790;42.668;23.298;2023-11-19T04:14:37;94730.84;;;9.36;42.90
35676;BME280;21790;42.668;23.298;2023-11-19T04:17:03;94731.75;;;9.33;43.03
35676;BME280;21790;42.668;23.298;2023-11-19T04:19:28;94738.63;;;9.29;43.00
35676;BME280;21790;42.668;23.298;2023-11-19T04:21:54;94742.19;;;9.38;42.82
35676;BME280;21790;42.668;23.298;2023-11-19T04:24:20;94737.31;;;9.42;42.77
35676;BME280;21790;42.668;23.298;2023-11-19T04:26:46;94735.44;;;9.39;42.98
35676;BME280;21790;42.668;23.298;2023-11-19T04:29:13;94726.88;;;9.37;43.24
35676;BME280;21790;42.668;23.298;2023-11-19T04:31:43;94735.91;;;9.38;42.80
35676;BME280;21790;42.668;23.298;2023-11-19T04:34:10;94744.13;;;9.29;43.07
35676;BME280;21790;42.668;23.298;2023-11-19T04:36:36;94752.72;;;9.31;42.74
35676;BME280;21790;42.668;23.298;2023-11-19T04:39:03;94754.50;;;9.46;42.70
35676;BME280;21790;42.668;23.298;2023-11-19T04:41:35;94756.66;;;9.51;42.31
35676;BME280;21790;42.668;23.298;2023-11-19T04:44:00;94756.03;;;9.47;42.71
35676;BME280;21790;42.668;23.298;2023-11-19T04:46:26;94746.44;;;9.30;42.92
35676;BME280;21790;42.668;23.298;2023-11-19T04:48:52;94752.53;;;8.94;43.08
35676;BME280;21790;42.668;23.298;2023-11-19T04:51:18;94760.03;;;9.24;42.78
35676;BME280;21790;42.668;23.298;2023-11-19T04:53:43;94762.84;;;9.34;42.45
35676;BME280;21790;42.668;23.298;2023-11-19T04:56:10;94760.75;;;9.38;41.97
35676;BME280;21790;42.668;23.298;2023-11-19T04:58:36;94765.72;;;9.21;42.79
35676;BME280;21790;42.668;23.298;2023-11-19T05:01:12;94757.22;;;9.37;42.22
35676;BME280;21790;42.668;23.298;2023-11-19T05:03:39;94763.97;;;9.45;42.29
35676;BME280;21790;42.668;23.298;2023-11-19T05:06:04;94770.13;;;9.49;42.04
35676;BME280;21790;42.668;23.298;2023-11-19T05:08:30;94783.72;;;9.44;42.09
35676;BME280;21790;42.668;23.298;2023-11-19T05:10:59;94792.78;;;9.44;42.65
35676;BME280;21790;42.668;23.298;2023-11-19T05:13:24;94787.59;;;9.46;41.89
35676;BME280;21790;42.668;23.298;2023-11-19T05:15:50;94791.13;;;9.47;42.32
35676;BME280;21790;42.668;23.298;2023-11-19T05:18:16;94783.91;;;9.49;41.94
35676;BME280;21790;42.668;23.298;2023-11-19T05:20:42;94779.13;;;9.41;41.79
35676;BME280;21790;42.668;23.298;2023-11-19T05:23:07;94787.56;;;9.15;42.63
35676;BME280;21790;42.668;23.298;2023-11-19T05:25:36;94771.44;;;9.36;42.44
35676;BME280;21790;42.668;23.298;2023-11-19T05:28:04;94769.06;;;9.47;41.87
35676;BME280;21790;42.668;23.298;2023-11-19T05:30:30;94773.47;;;9.13;42.44
35676;BME280;21790;42.668;23.298;2023-11-19T05:32:56;94772.66;;;9.35;42.24
35676;BME280;21790;42.668;23.298;2023-11-19T05:35:24;94775.19;;;9.51;42.00
35676;BME280;21790;42.668;23.298;2023-11-19T05:37:52;94779.63;;;9.48;42.38
35676;BME280;21790;42.668;23.298;2023-11-19T05:40:19;94784.28;;;9.60;42.11
35676;BME280;21790;42.668;23.298;2023-11-19T05:42:45;94787.63;;;9.55;41.95
35676;BME280;21790;42.668;23.298;2023-11-19T05:45:12;94777.84;;;9.54;41.95
35676;BME280;21790;42.668;23.298;2023-11-19T05:47:37;94792.84;;;9.53;41.87
35676;BME280;21790;42.668;23.298;2023-11-19T05:50:03;94802.47;;;9.49;42.20
35676;BME280;21790;42.668;23.298;2023-11-19T05:52:31;94791.53;;;9.36;42.31
35676;BME280;21790;42.668;23.298;2023-11-19T05:55:00;94791.94;;;9.56;42.14
35676;BME280;21790;42.668;23.298;2023-11-19T05:57:30;94802.69;;;9.63;41.95
35676;BME280;21790;42.668;23.298;2023-11-19T05:59:56;94799.53;;;9.43;42.15
35676;BME280;21790;42.668;23.298;2023-11-19T06:02:23;94807.66;;;9.16;42.30
35676;BME280;21790;42.668;23.298;2023-11-19T06:04:50;94807.69;;;9.25;42.33
35676;BME280;21790;42.668;23.298;2023-11-19T06:07:15;94810.75;;;9.49;42.17
35676;BME280;21790;42.668;23.298;2023-11-19T06:09:41;94821.19;;;9.54;42.17
35676;BME280;21790;42.668;23.298;2023-11-19T06:12:07;94812.03;;;9.66;41.82
35676;BME280;21790;42.668;23.298;2023-11-19T06:14:33;94812.44;;;9.55;41.72
35676;BME280;21790;42.668;23.298;2023-11-19T06:17:00;94819.88;;;9.68;41.96
35676;BME280;21790;42.668;23.298;2023-11-19T06:19:26;94803.78;;;9.66;42.18
35676;BME280;21790;42.668;23.298;2023-11-19T06:21:53;94807.22;;;9.79;41.58
35676;BME280;21790;42.668;23.298;2023-11-19T06:24:19;94795.91;;;9.55;42.07
35676;BME280;21790;42.668;23.298;2023-11-19T06:26:45;94805.28;;;9.58;41.85
35676;BME280;21790;42.668;23.298;2023-11-19T06:29:10;94817.38;;;9.60;42.01
35676;BME280;21790;42.668;23.298;2023-11-19T06:31:40;94830.28;;;9.63;42.03
35676;BME280;21790;42.668;23.298;2023-11-19T06:34:06;94820.31;;;9.35;42.33
35676;BME280;21790;42.668;23.298;2023-11-19T06:36:32;94801.19;;;9.41;42.14
35676;BME280;21790;42.668;23.298;2023-11-19T06:38:59;94819.16;;;9.45;42.36
35676;BME280;21790;42.668;23.298;2023-11-19T06:41:27;94830.44;;;9.38;41.83
35676;BME280;21790;42.668;23.298;2023-11-19T06:43:54;94818.47;;;9.32;42.38
35676;BME280;21790;42.668;23.298;2023-11-19T06:46:20;94819.06;;;9.27;42.59
35676;BME280;21790;42.668;23.298;2023-11-19T06:48:46;94817.88;;;9.37;42.08
35676;BME280;21790;42.668;23.298;2023-11-19T06:51:12;94822.22;;;9.47;42.20
35676;BME280;21790;42.668;23.298;2023-11-19T06:53:38;94817.38;;;9.08;42.46
35676;BME280;21790;42.668;23.298;2023-11-19T06:56:20;94805.56;;;9.07;42.88
35676;BME280;21790;42.668;23.298;2023-11-19T06:58:46;94814.38;;;8.93;42.98
35676;BME280;21790;42.668;23.298;2023-11-19T07:01:14;94824.81;;;9.20;42.68
35676;BME280;21790;42.668;23.298;2023-11-19T07:03:42;94835.31;;;9.34;42.12
35676;BME280;21790;42.668;23.298;2023-11-19T07:06:08;94825.88;;;9.22;42.33
35676;BME280;21790;42.668;23.298;2023-11-19T07:08:35;94825.22;;;9.09;42.85
35676;BME280;21790;42.668;23.298;2023-11-19T07:11:02;94844.69;;;9.15;42.29
35676;BME280;21790;42.668;23.298;2023-11-19T07:13:29;94840.84;;;9.34;42.14
35676;BME280;21790;42.668;23.298;2023-11-19T07:15:58;94826.06;;;9.50;41.62
35676;BME280;21790;42.668;23.298;2023-11-19T07:18:25;94833.09;;;9.42;42.17
35676;BME280;21790;42.668;23.298;2023-11-19T07:20:50;94839.19;;;9.15;42.09
35676;BME280;21790;42.668;23.298;2023-11-19T07:23:16;94847.06;;;9.04;42.26
35676;BME280;21790;42.668;23.298;2023-11-19T07:25:43;94834.34;;;9.06;42.54
35676;BME280;21790;42.668;23.298;2023-11-19T07:28:16;94842.53;;;9.10;42.36
35676;BME280;21790;42.668;23.298;2023-11-19T07:30:42;94855.34;;;9.04;42.36
35676;BME280;21790;42.668;23.298;2023-11-19T07:33:08;94862.44;;;9.14;42.37
35676;BME280;21790;42.668;23.298;2023-11-19T07:35:34;94864.56;;;9.10;42.22
35676;BME280;21790;42.668;23.298;2023-11-19T07:37:59;94877.66;;;9.18;42.05
35676;BME280;21790;42.668;23.298;2023-11-19T07:40:25;94869.13;;;9.04;42.16
35676;BME280;21790;42.668;23.298;2023-11-19T07:42:50;94872.72;;;8.79;42.48
35676;BME280;21790;42.668;23.298;2023-11-19T07:45:17;94871.31;;;8.74;42.89
35676;BME280;21790;42.668;23.298;2023-11-19T07:47:43;94879.81;;;9.02;42.43
35676;BME280;21790;42.668;23.298;2023-11-19T07:50:11;94864.94;;;8.99;42.68
35676;BME280;21790;42.668;23.298;2023-11-19T07:52:43;94871.25;;;9.43;41.49
35676;BME280;21790;42.668;23.298;2023-11-19T07:55:09;94875.81;;;9.15;41.85
35676;BME280;21790;42.668;23.298;2023-11-19T07:57:35;94880.59;;;9.24;41.58
35676;BME280;21790;42.668;23.298;2023-11-19T08:00:01;94877.66;;;9.40;41.23
35676;BME280;21790;42.668;23.298;2023-11-19T08:02:27;94875.53;;;9.44;41.04
35676;BME280;21790;42.668;23.298;2023-11-19T08:04:53;94882.16;;;9.25;41.63
35676;BME280;21790;42.668;23.298;2023-11-19T08:07:21;94890.16;;;9.10;41.83
35676;BME280;21790;42.668;23.298;2023-11-19T08:09:48;94876.78;;;9.43;41.27
35676;BME280;21790;42.668;23.298;2023-11-19T08:12:14;94886.88;;;9.46;41.06
35676;BME280;21790;42.668;23.298;2023-11-19T08:14:42;94896.38;;;9.45;40.81
35676;BME280;21790;42.668;23.298;2023-11-19T08:17:11;94889.59;;;9.15;41.86
35676;BME280;21790;42.668;23.298;2023-11-19T08:19:37;94897.72;;;9.19;41.83
35676;BME280;21790;42.668;23.298;2023-11-19T08:22:03;94903.75;;;9.05;41.60
35676;BME280;21790;42.668;23.298;2023-11-19T08:24:29;94897.72;;;9.19;41.78
35676;BME280;21790;42.668;23.298;2023-11-19T08:26:55;94894.84;;;9.44;41.24
35676;BME280;21790;42.668;23.298;2023-11-19T08:29:21;94896.66;;;9.60;40.78
35676;BME280;21790;42.668;23.298;2023-11-19T08:31:47;94899.00;;;9.71;40.85
35676;BME280;21790;42.668;23.298;2023-11-19T08:34:13;94890.63;;;9.83;40.67
35676;BME280;21790;42.668;23.298;2023-11-19T08:36:39;94890.75;;;9.71;41.17
35676;BME280;21790;42.668;23.298;2023-11-19T08:39:06;94899.28;;;9.63;41.22
35676;BME280;21790;42.668;23.298;2023-11-19T08:41:34;94905.66;;;9.60;41.30
35676;BME280;21790;42.668;23.298;2023-11-19T08:44:00;94910.94;;;9.46;41.07
35676;BME280;21790;42.668;23.298;2023-11-19T08:46:25;94902.53;;;9.49;40.68
35676;BME280;21790;42.668;23.298;2023-11-19T08:48:51;94895.88;;;9.59;40.45
35676;BME280;21790;42.668;23.298;2023-11-19T08:51:17;94900.94;;;9.39;41.16
35676;BME280;21790;42.668;23.298;2023-11-19T08:53:44;94894.63;;;9.60;40.45
35676;BME280;21790;42.668;23.298;2023-11-19T08:56:10;94909.00;;;9.55;40.19
35676;BME280;21790;42.668;23.298;2023-11-19T08:58:37;94912.69;;;9.52;40.34
35676;BME280;21790;42.668;23.298;2023-11-19T09:01:04;94919.56;;;9.48;40.66
35676;BME280;21790;42.668;23.298;2023-11-19T09:03:31;94901.91;;;9.45;40.42
35676;BME280;21790;42.668;23.298;2023-11-19T09:06:00;94896.50;;;9.63;40.25
35676;BME280;21790;42.668;23.298;2023-11-19T09:08:25;94895.59;;;9.66;40.67
35676;BME280;21790;42.668;23.298;2023-11-19T09:10:52;94889.88;;;9.61;40.11
35676;BME280;21790;42.668;23.298;2023-11-19T09:13:17;94876.59;;;9.99;40.71
35676;BME280;21790;42.668;23.298;2023-11-19T09:15:43;94876.28;;;10.19;39.51
35676;BME280;21790;42.668;23.298;2023-11-19T09:18:09;94869.06;;;10.22;39.81
35676;BME280;21790;42.668;23.298;2023-11-19T09:20:35;94883.41;;;10.47;39.40
35676;BME280;21790;42.668;23.298;2023-11-19T09:23:04;94882.69;;;10.65;39.46
35676;BME280;21790;42.668;23.298;2023-11-19T09:25:31;94890.53;;;10.67;38.77
35676;BME280;21790;42.668;23.298;2023-11-19T09:27:56;94886.94;;;10.08;39.47
35676;BME280;21790;42.668;23.298;2023-11-19T09:30:22;94897.28;;;10.17;39.27
35676;BME280;21790;42.668;23.298;2023-11-19T09:32:48;94882.47;;;10.01;39.04
35676;BME280;21790;42.668;23.298;2023-11-19T09:35:13;94884.84;;;10.21;39.08
35676;BME280;21790;42.668;23.298;2023-11-19T09:37:40;94874.31;;;9.98;39.20
35676;BME280;21790;42.668;23.298;2023-11-19T09:40:06;94865.44;;;10.03;39.36
35676;BME280;21790;42.668;23.298;2023-11-19T09:42:44;94857.25;;;10.21;39.35
35676;BME280;21790;42.668;23.298;2023-11-19T09:47:51;94847.19;;;10.36;39.65
35676;BME280;21790;42.668;23.298;2023-11-19T09:50:18;94835.69;;;10.07;39.75
35676;BME280;21790;42.668;23.298;2023-11-19T09:52:45;94830.19;;;10.65;40.78
35676;BME280;21790;42.668;23.298;2023-11-19T09:55:11;94808.25;;;10.80;39.04
35676;BME280;21790;42.668;23.298;2023-11-19T09:57:40;94806.84;;;11.03;39.53
35676;BME280;21790;42.668;23.298;2023-11-19T10:00:10;94816.00;;;11.72;39.35
35676;BME280;21790;42.668;23.298;2023-11-19T10:02:36;94814.78;;;12.06;37.63
35676;BME280;21790;42.668;23.298;2023-11-19T10:05:07;94818.69;;;12.00;37.84
35676;BME280;21790;42.668;23.298;2023-11-19T10:07:33;94821.81;;;12.16;37.45
35676;BME280;21790;42.668;23.298;2023-11-19T10:10:01;94814.00;;;12.15;37.01
35676;BME280;21790;42.668;23.298;2023-11-19T10:12:28;94810.31;;;12.42;36.84
35676;BME280;21790;42.668;23.298;2023-11-19T10:14:56;94815.78;;;11.94;37.17
35676;BME280;21790;42.668;23.298;2023-11-19T10:17:27;94818.84;;;11.96;37.48
35676;BME280;21790;42.668;23.298;2023-11-19T10:19:54;94826.06;;;12.03;36.95
35676;BME280;21790;42.668;23.298;2023-11-19T10:22:23;94812.50;;;12.38;36.69
35676;BME280;21790;42.668;23.298;2023-11-19T10:24:49;94826.59;;;12.73;35.98
35676;BME280;21790;42.668;23.298;2023-11-19T10:27:15;94825.22;;;13.16;36.15
35676;BME280;21790;42.668;23.298;2023-11-19T10:29:47;94817.06;;;13.95;51.23
35676;BME280;21790;42.668;23.298;2023-11-19T10:32:13;94810.94;;;14.75;39.72
35676;BME280;21790;42.668;23.298;2023-11-19T10:34:40;94789.03;;;15.03;35.46
35676;BME280;21790;42.668;23.298;2023-11-19T10:37:06;94787.56;;;15.33;34.21
35676;BME280;21790;42.668;23.298;2023-11-19T10:42:16;94805.81;;;15.80;35.56
35676;BME280;21790;42.668;23.298;2023-11-19T10:44:41;94813.66;;;15.82;33.66
35676;BME280;21790;42.668;23.298;2023-11-19T10:47:08;94810.50;;;15.95;34.58
35676;BME280;21790;42.668;23.298;2023-11-19T10:49:35;94797.16;;;15.78;33.01
35676;BME280;21790;42.668;23.298;2023-11-19T10:52:00;94810.88;;;15.82;32.09
35676;BME280;21790;42.668;23.298;2023-11-19T10:54:26;94811.72;;;15.62;31.91
35676;BME280;21790;42.668;23.298;2023-11-19T10:56:56;94805.13;;;15.60;33.92
35676;BME280;21790;42.668;23.298;2023-11-19T10:59:23;94805.38;;;15.62;31.71
35676;BME280;21790;42.668;23.298;2023-11-19T11:01:50;94792.09;;;15.05;32.00
35676;BME280;21790;42.668;23.298;2023-11-19T11:04:23;94789.16;;;14.74;32.68
35676;BME280;21790;42.668;23.298;2023-11-19T11:06:54;94776.25;;;14.71;32.62
35676;BME280;21790;42.668;23.298;2023-11-19T11:09:23;94766.88;;;14.33;32.64
35676;BME280;21790;42.668;23.298;2023-11-19T11:11:50;94754.81;;;14.21;32.79
35676;BME280;21790;42.668;23.298;2023-11-19T11:14:18;94749.91;;;13.96;32.71
35676;BME280;21790;42.668;23.298;2023-11-19T11:16:46;94750.13;;;13.78;33.33
35676;BME280;21790;42.668;23.298;2023-11-19T11:19:12;94740.22;;;13.92;32.76
35676;BME280;21790;42.668;23.298;2023-11-19T11:21:40;94755.16;;;13.94;33.06
35676;BME280;21790;42.668;23.298;2023-11-19T11:27:19;94738.59;;;14.00;32.92
35676;BME280;21790;42.668;23.298;2023-11-19T11:32:53;94761.44;;;13.60;33.17
35676;BME280;21790;42.668;23.298;2023-11-19T11:35:41;94765.28;;;13.62;32.91
35676;BME280;21790;42.668;23.298;2023-11-19T11:38:11;94762.56;;;13.53;33.64
35676;BME280;21790;42.668;23.298;2023-11-19T11:40:38;94744.19;;;13.56;33.43
35676;BME280;21790;42.668;23.298;2023-11-19T11:43:03;94739.03;;;13.49;33.91
35676;BME280;21790;42.668;23.298;2023-11-19T11:45:40;94723.31;;;13.60;33.40
35676;BME280;21790;42.668;23.298;2023-11-19T11:48:14;94732.59;;;13.72;33.74
35676;BME280;21790;42.668;23.298;2023-11-19T11:50:55;94717.03;;;13.95;33.14
35676;BME280;21790;42.668;23.298;2023-11-19T11:53:24;94725.81;;;13.73;33.51
35676;BME280;21790;42.668;23.298;2023-11-19T11:58:27;94733.84;;;13.71;33.39
35676;BME280;21790;42.668;23.298;2023-11-19T12:00:52;94724.28;;;13.72;33.86
35676;BME280;21790;42.668;23.298;2023-11-19T12:03:20;94722.22;;;13.87;33.48
35676;BME280;21790;42.668;23.298;2023-11-19T12:05:47;94729.63;;;13.75;33.47
35676;BME280;21790;42.668;23.298;2023-11-19T12:08:15;94721.53;;;13.92;33.09
35676;BME280;21790;42.668;23.298;2023-11-19T12:10:49;94725.25;;;14.04;33.24
35676;BME280;21790;42.668;23.298;2023-11-19T12:13:16;94700.88;;;14.13;33.13
35676;BME280;21790;42.668;23.298;2023-11-19T12:18:29;94706.97;;;13.97;33.12
35676;BME280;21790;42.668;23.298;2023-11-19T12:20:55;94703.03;;;14.04;33.01
35676;BME280;21790;42.668;23.298;2023-11-19T12:23:21;94699.63;;;14.35;32.24
35676;BME280;21790;42.668;23.298;2023-11-19T12:25:48;94696.50;;;14.07;32.46
35676;BME280;21790;42.668;23.298;2023-11-19T12:28:14;94696.00;;;14.08;32.78
35676;BME280;21790;42.668;23.298;2023-11-19T12:30:39;94688.19;;;14.07;32.42
35676;BME280;21790;42.668;23.298;2023-11-19T12:33:09;94681.50;;;14.19;32.35
35676;BME280;21790;42.668;23.298;2023-11-19T12:38:07;94686.47;;;13.95;32.88
35676;BME280;21790;42.668;23.298;2023-11-19T12:40:33;94677.25;;;14.03;32.59
35676;BME280;21790;42.668;23.298;2023-11-19T12:42:58;94673.69;;;13.82;32.78
35676;BME280;21790;42.668;23.298;2023-11-19T12:45:27;94669.34;;;14.16;32.75
35676;BME280;21790;42.668;23.298;2023-11-19T12:48:06;94666.97;;;14.09;33.03
35676;BME280;21790;42.668;23.298;2023-11-19T12:50:51;94666.69;;;14.07;33.12
35676;BME280;21790;42.668;23.298;2023-11-19T12:53:20;94668.69;;;13.87;33.53
35676;BME280;21790;42.668;23.298;2023-11-19T12:55:47;94669.38;;;13.81;33.85
35676;BME280;21790;42.668;23.298;2023-11-19T12:58:31;94672.06;;;13.76;33.87
35676;BME280;21790;42.668;23.298;2023-11-19T13:01:00;94667.31;;;13.62;34.24
35676;BME280;21790;42.668;23.298;2023-11-19T13:03:29;94665.69;;;13.55;34.67
35676;BME280;21790;42.668;23.298;2023-11-19T13:06:00;94655.84;;;13.54;34.55
35676;BME280;21790;42.668;23.298;2023-11-19T13:08:26;94661.84;;;13.67;34.50
35676;BME280;21790;42.668;23.298;2023-11-19T13:13:21;94659.56;;;13.86;34.07
35676;BME280;21790;42.668;23.298;2023-11-19T13:15:46;94656.84;;;13.71;34.56
35676;BME280;21790;42.668;23.298;2023-11-19T13:18:15;94659.63;;;13.71;34.48
35676;BME280;21790;42.668;23.298;2023-11-19T13:20:41;94654.84;;;13.72;34.28